sensor_id;sensor_type;location;lat;lon;timestamp;P1;durP1;ratioP1;P2;durP2;ratioP2
22531;SDS011;11432;46.924;7.114;2024-03-23T00:52:36;3.28;;;1.60;;
22531;SDS011;11432;46.924;7.114;2024-03-23T00:55:02;3.92;;;1.98;;
22531;SDS011;11432;46.924;7.114;2024-03-23T00:57:28;3.33;;;1.52;;
22531;SDS011;11432;46.924;7.114;2024-03-23T00:59:54;7.80;;;2.25;;
22531;SDS011;11432;46.924;7.114;2024-03-23T01:02:20;2.28;;;1.70;;
22531;SDS011;11432;46.924;7.114;2024-03-23T01:04:46;3.03;;;1.80;;
22531;SDS011;11432;46.924;7.114;2024-03-23T01:07:12;4.10;;;1.77;;
22531;SDS011;11432;46.924;7.114;2024-03-23T01:09:38;6.20;;;1.92;;
22531;SDS011;11432;46.924;7.114;2024-03-23T01:12:04;6.10;;;1.63;;
22531;SDS011;11432;46.924;7.114;2024-03-23T01:14:30;2.47;;;1.60;;
22531;SDS011;11432;46.924;7.114;2024-03-23T01:16:57;3.90;;;1.60;;
22531;SDS011;11432;46.924;7.114;2024-03-23T01:19:23;4.45;;;1.60;;
22531;SDS011;11432;46.924;7.114;2024-03-23T01:21:49;2.95;;;1.90;;
22531;SDS011;11432;46.924;7.114;2024-03-23T01:24:15;3.95;;;1.70;;
22531;SDS011;11432;46.924;7.114;2024-03-23T01:26:41;4.90;;;1.88;;
22531;SDS011;11432;46.924;7.114;2024-03-23T01:29:07;4.75;;;1.83;;
22531;SDS011;11432;46.924;7.114;2024-03-23T01:31:33;3.22;;;1.75;;
22531;SDS011;11432;46.924;7.114;2024-03-23T01:33:59;4.82;;;1.55;;
22531;SDS011;11432;46.924;7.114;2024-03-23T01:36:25;3.80;;;2.00;;
22531;SDS011;11432;46.924;7.114;2024-03-23T01:38:51;2.97;;;1.70;;
22531;SDS011;11432;46.924;7.114;2024-03-23T01:41:17;2.85;;;1.95;;
22531;SDS011;11432;46.924;7.114;2024-03-23T01:43:43;4.40;;;1.52;;
22531;SDS011;11432;46.924;7.114;2024-03-23T01:46:09;3.33;;;1.42;;
22531;SDS011;11432;46.924;7.114;2024-03-23T01:48:35;3.15;;;1.70;;
22531;SDS011;11432;46.924;7.114;2024-03-23T01:51:01;3.97;;;1.65;;
22531;SDS011;11432;46.924;7.114;2024-03-23T01:53:27;3.80;;;1.60;;
22531;SDS011;11432;46.924;7.114;2024-03-23T01:55:54;3.80;;;1.95;;
22531;SDS011;11432;46.924;7.114;2024-03-23T01:58:20;4.95;;;1.70;;
22531;SDS011;11432;46.924;7.114;2024-03-23T02:00:46;3.25;;;1.60;;
22531;SDS011;11432;46.924;7.114;2024-03-23T02:03:22;6.53;;;1.80;;
22531;SDS011;11432;46.924;7.114;2024-03-23T02:05:49;3.45;;;1.73;;
22531;SDS011;11432;46.924;7.114;2024-03-23T02:08:16;2.95;;;1.80;;
22531;SDS011;11432;46.924;7.114;2024-03-23T02:10:43;3.47;;;1.67;;
22531;SDS011;11432;46.924;7.114;2024-03-23T02:13:09;4.70;;;1.92;;
22531;SDS011;11432;46.924;7.114;2024-03-23T02:15:35;4.07;;;1.63;;
22531;SDS011;11432;46.924;7.114;2024-03-23T02:18:01;6.00;;;1.65;;
22531;SDS011;11432;46.924;7.114;2024-03-23T02:20:27;3.10;;;1.70;;
22531;SDS011;11432;46.924;7.114;2024-03-23T02:22:53;5.32;;;1.65;;
22531;SDS011;11432;46.924;7.114;2024-03-23T02:25:19;3.58;;;1.88;;
22531;SDS011;11432;46.924;7.114;2024-03-23T02:27:45;3.28;;;1.70;;
22531;SDS011;11432;46.924;7.114;2024-03-23T02:30:11;4.20;;;1.60;;
22531;SDS011;11432;46.924;7.114;2024-03-23T02:32:37;3.08;;;1.70;;
22531;SDS011;11432;46.924;7.114;2024-03-23T02:35:03;3.58;;;1.52;;
22531;SDS011;11432;46.924;7.114;2024-03-23T02:37:29;3.03;;;1.80;;
22531;SDS011;11432;46.924;7.114;2024-03-23T02:39:56;5.28;;;1.70;;
22531;SDS011;11432;46.924;7.114;2024-03-23T02:42:22;2.50;;;1.70;;
22531;SDS011;11432;46.924;7.114;2024-03-23T02:44:48;4.78;;;1.70;;
22531;SDS011;11432;46.924;7.114;2024-03-23T02:47:14;3.72;;;1.60;;
22531;SDS011;11432;46.924;7.114;2024-03-23T02:49:40;2.78;;;1.85;;
22531;SDS011;11432;46.924;7.114;2024-03-23T02:52:06;4.03;;;1.30;;
22531;SDS011;11432;46.924;7.114;2024-03-23T02:54:31;4.10;;;1.65;;
22531;SDS011;11432;46.924;7.114;2024-03-23T02:56:57;2.75;;;1.60;;
22531;SDS011;11432;46.924;7.114;2024-03-23T02:59:23;4.43;;;1.13;;
22531;SDS011;11432;46.924;7.114;2024-03-23T03:01:49;3.03;;;1.33;;
22531;SDS011;11432;46.924;7.114;2024-03-23T03:04:15;3.55;;;1.58;;
22531;SDS011;11432;46.924;7.114;2024-03-23T03:06:41;4.00;;;1.55;;
22531;SDS011;11432;46.924;7.114;2024-03-23T03:09:07;2.75;;;1.38;;
22531;SDS011;11432;46.924;7.114;2024-03-23T03:11:33;3.35;;;1.13;;
22531;SDS011;11432;46.924;7.114;2024-03-23T03:13:59;4.10;;;1.10;;
22531;SDS011;11432;46.924;7.114;2024-03-23T03:16:26;4.22;;;1.23;;
22531;SDS011;11432;46.924;7.114;2024-03-23T03:18:51;2.72;;;1.30;;
22531;SDS011;11432;46.924;7.114;2024-03-23T03:21:17;4.18;;;1.30;;
22531;SDS011;11432;46.924;7.114;2024-03-23T03:23:44;5.13;;;1.23;;
22531;SDS011;11432;46.924;7.114;2024-03-23T03:26:10;1.80;;;1.17;;
22531;SDS011;11432;46.924;7.114;2024-03-23T03:28:36;2.42;;;1.50;;
22531;SDS011;11432;46.924;7.114;2024-03-23T03:31:02;2.78;;;1.33;;
22531;SDS011;11432;46.924;7.114;2024-03-23T03:33:28;4.53;;;1.40;;
22531;SDS011;11432;46.924;7.114;2024-03-23T03:35:54;4.72;;;1.20;;
22531;SDS011;11432;46.924;7.114;2024-03-23T03:38:20;1.75;;;1.20;;
22531;SDS011;11432;46.924;7.114;2024-03-23T03:40:46;3.95;;;1.23;;
22531;SDS011;11432;46.924;7.114;2024-03-23T03:43:12;3.22;;;1.35;;
22531;SDS011;11432;46.924;7.114;2024-03-23T03:45:38;5.28;;;1.48;;
22531;SDS011;11432;46.924;7.114;2024-03-23T03:48:04;2.58;;;1.30;;
22531;SDS011;11432;46.924;7.114;2024-03-23T03:50:30;4.47;;;1.30;;
22531;SDS011;11432;46.924;7.114;2024-03-23T03:52:56;1.92;;;1.10;;
22531;SDS011;11432;46.924;7.114;2024-03-23T03:55:22;2.45;;;1.35;;
22531;SDS011;11432;46.924;7.114;2024-03-23T03:57:48;2.85;;;1.40;;
22531;SDS011;11432;46.924;7.114;2024-03-23T04:00:14;2.15;;;1.25;;
22531;SDS011;11432;46.924;7.114;2024-03-23T04:02:40;3.33;;;1.40;;
22531;SDS011;11432;46.924;7.114;2024-03-23T04:05:07;2.53;;;1.30;;
22531;SDS011;11432;46.924;7.114;2024-03-23T04:07:33;3.58;;;1.25;;
22531;SDS011;11432;46.924;7.114;2024-03-23T04:09:59;1.67;;;1.00;;
22531;SDS011;11432;46.924;7.114;2024-03-23T04:12:25;2.95;;;1.13;;
22531;SDS011;11432;46.924;7.114;2024-03-23T04:14:51;3.80;;;1.02;;
22531;SDS011;11432;46.924;7.114;2024-03-23T04:17:17;3.08;;;1.20;;
22531;SDS011;11432;46.924;7.114;2024-03-23T04:19:44;4.95;;;1.40;;
22531;SDS011;11432;46.924;7.114;2024-03-23T04:22:10;3.92;;;1.60;;
22531;SDS011;11432;46.924;7.114;2024-03-23T04:24:36;3.47;;;1.60;;
22531;SDS011;11432;46.924;7.114;2024-03-23T04:27:02;2.13;;;1.27;;
22531;SDS011;11432;46.924;7.114;2024-03-23T04:29:28;2.45;;;1.30;;
22531;SDS011;11432;46.924;7.114;2024-03-23T04:31:54;2.88;;;1.20;;
22531;SDS011;11432;46.924;7.114;2024-03-23T04:34:20;3.45;;;1.40;;
22531;SDS011;11432;46.924;7.114;2024-03-23T04:36:47;1.88;;;1.20;;
22531;SDS011;11432;46.924;7.114;2024-03-23T04:39:13;2.70;;;1.83;;
22531;SDS011;11432;46.924;7.114;2024-03-23T04:41:39;7.50;;;2.10;;
22531;SDS011;11432;46.924;7.114;2024-03-23T04:44:05;4.22;;;2.13;;
22531;SDS011;11432;46.924;7.114;2024-03-23T04:46:31;5.50;;;1.77;;
22531;SDS011;11432;46.924;7.114;2024-03-23T04:48:57;3.10;;;1.83;;
22531;SDS011;11432;46.924;7.114;2024-03-23T04:51:23;3.03;;;2.13;;
22531;SDS011;11432;46.924;7.114;2024-03-23T04:53:49;4.88;;;1.90;;
22531;SDS011;11432;46.924;7.114;2024-03-23T04:56:16;3.55;;;1.90;;
22531;SDS011;11432;46.924;7.114;2024-03-23T04:58:42;5.78;;;1.95;;
22531;SDS011;11432;46.924;7.114;2024-03-23T05:01:08;4.05;;;2.10;;
22531;SDS011;11432;46.924;7.114;2024-03-23T05:03:34;2.88;;;1.90;;
22531;SDS011;11432;46.924;7.114;2024-03-23T05:06:00;5.20;;;2.03;;
22531;SDS011;11432;46.924;7.114;2024-03-23T05:08:26;4.70;;;2.22;;
22531;SDS011;11432;46.924;7.114;2024-03-23T05:10:52;3.05;;;1.70;;
22531;SDS011;11432;46.924;7.114;2024-03-23T05:13:18;2.80;;;2.08;;
22531;SDS011;11432;46.924;7.114;2024-03-23T05:15:50;4.93;;;1.95;;
22531;SDS011;11432;46.924;7.114;2024-03-23T05:18:16;6.90;;;2.22;;
22531;SDS011;11432;46.924;7.114;2024-03-23T05:20:42;4.90;;;2.67;;
22531;SDS011;11432;46.924;7.114;2024-03-23T05:23:09;3.15;;;1.60;;
22531;SDS011;11432;46.924;7.114;2024-03-23T05:25:35;3.67;;;1.33;;
22531;SDS011;11432;46.924;7.114;2024-03-23T05:28:01;3.38;;;1.60;;
22531;SDS011;11432;46.924;7.114;2024-03-23T05:30:27;4.15;;;1.63;;
22531;SDS011;11432;46.924;7.114;2024-03-23T05:32:53;2.47;;;1.48;;
22531;SDS011;11432;46.924;7.114;2024-03-23T05:35:20;2.80;;;1.80;;
22531;SDS011;11432;46.924;7.114;2024-03-23T05:37:46;4.32;;;1.60;;
22531;SDS011;11432;46.924;7.114;2024-03-23T05:40:12;2.13;;;1.40;;
22531;SDS011;11432;46.924;7.114;2024-03-23T05:42:40;3.85;;;1.67;;
22531;SDS011;11432;46.924;7.114;2024-03-23T05:45:06;4.25;;;1.85;;
22531;SDS011;11432;46.924;7.114;2024-03-23T05:47:33;3.50;;;1.63;;
22531;SDS011;11432;46.924;7.114;2024-03-23T05:49:59;3.35;;;1.85;;
22531;SDS011;11432;46.924;7.114;2024-03-23T05:52:26;5.35;;;1.70;;
22531;SDS011;11432;46.924;7.114;2024-03-23T05:54:52;3.38;;;1.30;;
22531;SDS011;11432;46.924;7.114;2024-03-23T05:57:18;5.03;;;1.90;;
22531;SDS011;11432;46.924;7.114;2024-03-23T05:59:44;1.80;;;1.27;;
22531;SDS011;11432;46.924;7.114;2024-03-23T06:02:10;2.53;;;1.65;;
22531;SDS011;11432;46.924;7.114;2024-03-23T06:04:36;4.57;;;1.85;;
22531;SDS011;11432;46.924;7.114;2024-03-23T06:07:03;2.80;;;1.67;;
22531;SDS011;11432;46.924;7.114;2024-03-23T06:09:31;4.30;;;2.00;;
22531;SDS011;11432;46.924;7.114;2024-03-23T06:11:57;2.83;;;1.60;;
22531;SDS011;11432;46.924;7.114;2024-03-23T06:14:23;3.72;;;1.40;;
22531;SDS011;11432;46.924;7.114;2024-03-23T06:16:49;4.75;;;0.85;;
22531;SDS011;11432;46.924;7.114;2024-03-23T06:19:15;3.60;;;1.23;;
22531;SDS011;11432;46.924;7.114;2024-03-23T06:21:44;1.63;;;0.80;;
22531;SDS011;11432;46.924;7.114;2024-03-23T06:24:10;0.80;;;0.52;;
22531;SDS011;11432;46.924;7.114;2024-03-23T06:26:36;1.20;;;0.80;;
22531;SDS011;11432;46.924;7.114;2024-03-23T06:29:02;1.38;;;0.70;;
22531;SDS011;11432;46.924;7.114;2024-03-23T06:31:30;0.77;;;0.50;;
22531;SDS011;11432;46.924;7.114;2024-03-23T06:33:56;1.08;;;0.60;;
22531;SDS011;11432;46.924;7.114;2024-03-23T06:36:22;1.50;;;0.70;;
22531;SDS011;11432;46.924;7.114;2024-03-23T06:38:48;2.13;;;0.60;;
22531;SDS011;11432;46.924;7.114;2024-03-23T06:41:14;4.88;;;0.57;;
22531;SDS011;11432;46.924;7.114;2024-03-23T06:43:40;0.88;;;0.60;;
22531;SDS011;11432;46.924;7.114;2024-03-23T06:46:06;2.45;;;1.00;;
22531;SDS011;11432;46.924;7.114;2024-03-23T06:48:32;2.20;;;0.70;;
22531;SDS011;11432;46.924;7.114;2024-03-23T06:50:58;1.70;;;0.80;;
22531;SDS011;11432;46.924;7.114;2024-03-23T06:53:24;1.20;;;0.90;;
22531;SDS011;11432;46.924;7.114;2024-03-23T06:55:51;1.02;;;0.77;;
22531;SDS011;11432;46.924;7.114;2024-03-23T06:58:22;1.00;;;0.57;;
22531;SDS011;11432;46.924;7.114;2024-03-23T07:00:48;1.83;;;0.80;;
22531;SDS011;11432;46.924;7.114;2024-03-23T07:03:15;1.65;;;1.00;;
22531;SDS011;11432;46.924;7.114;2024-03-23T07:05:41;1.70;;;0.90;;
22531;SDS011;11432;46.924;7.114;2024-03-23T07:08:07;2.78;;;0.60;;
22531;SDS011;11432;46.924;7.114;2024-03-23T07:10:33;1.15;;;0.80;;
22531;SDS011;11432;46.924;7.114;2024-03-23T07:13:00;2.58;;;1.50;;
22531;SDS011;11432;46.924;7.114;2024-03-23T07:15:26;2.30;;;1.20;;
22531;SDS011;11432;46.924;7.114;2024-03-23T07:17:52;8.23;;;1.08;;
22531;SDS011;11432;46.924;7.114;2024-03-23T07:20:18;3.38;;;1.08;;
22531;SDS011;11432;46.924;7.114;2024-03-23T07:22:45;2.33;;;1.20;;
22531;SDS011;11432;46.924;7.114;2024-03-23T07:25:12;0.68;;;0.47;;
22531;SDS011;11432;46.924;7.114;2024-03-23T07:27:38;1.25;;;0.30;;
22531;SDS011;11432;46.924;7.114;2024-03-23T07:30:04;0.47;;;0.10;;
22531;SDS011;11432;46.924;7.114;2024-03-23T07:32:30;0.08;;;0.00;;
22531;SDS011;11432;46.924;7.114;2024-03-23T07:34:56;0.13;;;0.10;;
22531;SDS011;11432;46.924;7.114;2024-03-23T07:37:22;1.55;;;0.00;;
22531;SDS011;11432;46.924;7.114;2024-03-23T07:39:48;0.55;;;0.10;;
22531;SDS011;11432;46.924;7.114;2024-03-23T07:42:14;0.10;;;0.08;;
22531;SDS011;11432;46.924;7.114;2024-03-23T07:44:40;0.10;;;0.00;;
22531;SDS011;11432;46.924;7.114;2024-03-23T07:47:06;0.17;;;0.00;;
22531;SDS011;11432;46.924;7.114;2024-03-23T07:49:32;0.10;;;0.00;;
22531;SDS011;11432;46.924;7.114;2024-03-23T07:51:58;0.00;;;0.00;;
22531;SDS011;11432;46.924;7.114;2024-03-23T07:54:24;0.00;;;0.00;;
22531;SDS011;11432;46.924;7.114;2024-03-23T07:56:50;0.45;;;0.00;;
22531;SDS011;11432;46.924;7.114;2024-03-23T07:59:16;0.00;;;0.00;;
22531;SDS011;11432;46.924;7.114;2024-03-23T08:01:44;0.17;;;0.00;;
22531;SDS011;11432;46.924;7.114;2024-03-23T08:04:11;0.00;;;0.00;;
22531;SDS011;11432;46.924;7.114;2024-03-23T08:06:37;0.00;;;0.00;;
22531;SDS011;11432;46.924;7.114;2024-03-23T08:09:03;0.10;;;0.10;;
22531;SDS011;11432;46.924;7.114;2024-03-23T08:11:30;0.00;;;0.00;;
22531;SDS011;11432;46.924;7.114;2024-03-23T08:13:56;1.70;;;0.03;;
22531;SDS011;11432;46.924;7.114;2024-03-23T08:16:22;0.00;;;0.00;;
22531;SDS011;11432;46.924;7.114;2024-03-23T08:18:50;0.10;;;0.00;;
22531;SDS011;11432;46.924;7.114;2024-03-23T08:21:16;0.17;;;0.00;;
22531;SDS011;11432;46.924;7.114;2024-03-23T08:23:43;0.20;;;0.08;;
22531;SDS011;11432;46.924;7.114;2024-03-23T08:26:10;0.50;;;0.00;;
22531;SDS011;11432;46.924;7.114;2024-03-23T08:28:37;0.25;;;0.10;;
22531;SDS011;11432;46.924;7.114;2024-03-23T08:31:10;0.20;;;0.10;;
22531;SDS011;11432;46.924;7.114;2024-03-23T08:33:36;1.00;;;0.28;;
22531;SDS011;11432;46.924;7.114;2024-03-23T08:36:04;0.20;;;0.10;;
22531;SDS011;11432;46.924;7.114;2024-03-23T08:38:30;0.15;;;0.10;;
22531;SDS011;11432;46.924;7.114;2024-03-23T08:41:03;0.55;;;0.03;;
22531;SDS011;11432;46.924;7.114;2024-03-23T08:43:30;0.15;;;0.00;;
22531;SDS011;11432;46.924;7.114;2024-03-23T08:48:34;1.42;;;0.20;;
22531;SDS011;11432;46.924;7.114;2024-03-23T08:51:04;0.85;;;0.20;;
22531;SDS011;11432;46.924;7.114;2024-03-23T08:53:31;2.25;;;0.40;;
22531;SDS011;11432;46.924;7.114;2024-03-23T08:55:57;1.42;;;0.22;;
22531;SDS011;11432;46.924;7.114;2024-03-23T08:58:24;0.77;;;0.10;;
22531;SDS011;11432;46.924;7.114;2024-03-23T09:00:50;0.63;;;0.17;;
22531;SDS011;11432;46.924;7.114;2024-03-23T09:03:16;1.33;;;0.28;;
22531;SDS011;11432;46.924;7.114;2024-03-23T09:05:43;0.70;;;0.10;;
22531;SDS011;11432;46.924;7.114;2024-03-23T09:08:09;0.77;;;0.10;;
22531;SDS011;11432;46.924;7.114;2024-03-23T09:10:38;0.57;;;0.17;;
22531;SDS011;11432;46.924;7.114;2024-03-23T09:13:04;2.15;;;0.20;;
22531;SDS011;11432;46.924;7.114;2024-03-23T09:15:31;0.13;;;0.10;;
22531;SDS011;11432;46.924;7.114;2024-03-23T09:17:58;0.68;;;0.10;;
22531;SDS011;11432;46.924;7.114;2024-03-23T09:20:25;0.82;;;0.10;;
22531;SDS011;11432;46.924;7.114;2024-03-23T09:22:51;0.40;;;0.13;;
22531;SDS011;11432;46.924;7.114;2024-03-23T09:25:17;1.23;;;0.38;;
22531;SDS011;11432;46.924;7.114;2024-03-23T09:27:45;2.35;;;0.35;;
22531;SDS011;11432;46.924;7.114;2024-03-23T09:30:11;2.30;;;0.38;;
22531;SDS011;11432;46.924;7.114;2024-03-23T09:32:38;2.17;;;0.43;;
22531;SDS011;11432;46.924;7.114;2024-03-23T09:35:04;1.00;;;0.28;;
22531;SDS011;11432;46.924;7.114;2024-03-23T09:37:30;1.27;;;0.40;;
22531;SDS011;11432;46.924;7.114;2024-03-23T09:39:56;1.52;;;0.40;;
22531;SDS011;11432;46.924;7.114;2024-03-23T09:42:22;0.80;;;0.30;;
22531;SDS011;11432;46.924;7.114;2024-03-23T09:44:49;1.65;;;0.40;;
22531;SDS011;11432;46.924;7.114;2024-03-23T09:47:16;1.77;;;0.45;;
22531;SDS011;11432;46.924;7.114;2024-03-23T09:49:43;2.83;;;0.60;;
22531;SDS011;11432;46.924;7.114;2024-03-23T09:52:09;2.13;;;0.50;;
22531;SDS011;11432;46.924;7.114;2024-03-23T09:54:35;2.70;;;0.55;;
22531;SDS011;11432;46.924;7.114;2024-03-23T09:57:02;5.38;;;0.90;;
22531;SDS011;11432;46.924;7.114;2024-03-23T09:59:29;1.50;;;0.40;;
22531;SDS011;11432;46.924;7.114;2024-03-23T10:01:55;2.50;;;0.68;;
22531;SDS011;11432;46.924;7.114;2024-03-23T10:07:20;2.67;;;0.70;;
22531;SDS011;11432;46.924;7.114;2024-03-23T10:09:49;5.82;;;1.13;;
22531;SDS011;11432;46.924;7.114;2024-03-23T10:12:18;4.50;;;1.10;;
22531;SDS011;11432;46.924;7.114;2024-03-23T10:14:45;5.65;;;1.10;;
22531;SDS011;11432;46.924;7.114;2024-03-23T10:19:47;3.00;;;0.47;;
22531;SDS011;11432;46.924;7.114;2024-03-23T10:22:23;4.22;;;0.80;;
22531;SDS011;11432;46.924;7.114;2024-03-23T10:24:49;4.28;;;1.25;;
22531;SDS011;11432;46.924;7.114;2024-03-23T10:27:16;3.13;;;1.10;;
22531;SDS011;11432;46.924;7.114;2024-03-23T10:29:43;4.38;;;0.90;;
22531;SDS011;11432;46.924;7.114;2024-03-23T10:32:13;5.28;;;1.15;;
22531;SDS011;11432;46.924;7.114;2024-03-23T10:34:39;3.92;;;0.77;;
22531;SDS011;11432;46.924;7.114;2024-03-23T10:37:06;5.80;;;1.17;;
22531;SDS011;11432;46.924;7.114;2024-03-23T10:39:33;4.30;;;1.13;;
22531;SDS011;11432;46.924;7.114;2024-03-23T10:43:08;5.88;;;1.00;;
22531;SDS011;11432;46.924;7.114;2024-03-23T10:45:33;4.35;;;1.33;;
22531;SDS011;11432;46.924;7.114;2024-03-23T10:47:59;2.78;;;0.75;;
22531;SDS011;11432;46.924;7.114;2024-03-23T10:50:25;5.15;;;0.90;;
22531;SDS011;11432;46.924;7.114;2024-03-23T10:52:52;5.78;;;1.10;;
22531;SDS011;11432;46.924;7.114;2024-03-23T10:55:20;4.93;;;2.13;;
22531;SDS011;11432;46.924;7.114;2024-03-23T10:57:52;4.65;;;1.15;;
22531;SDS011;11432;46.924;7.114;2024-03-23T11:00:20;2.22;;;0.77;;
22531;SDS011;11432;46.924;7.114;2024-03-23T11:02:47;4.82;;;0.82;;
22531;SDS011;11432;46.924;7.114;2024-03-23T11:07:51;4.75;;;1.33;;
22531;SDS011;11432;46.924;7.114;2024-03-23T11:12:50;5.28;;;1.40;;
22531;SDS011;11432;46.924;7.114;2024-03-23T11:15:16;5.63;;;1.00;;
22531;SDS011;11432;46.924;7.114;2024-03-23T11:17:41;6.00;;;1.00;;
22531;SDS011;11432;46.924;7.114;2024-03-23T11:20:31;3.85;;;1.13;;
22531;SDS011;11432;46.924;7.114;2024-03-23T11:22:57;3.35;;;1.08;;
22531;SDS011;11432;46.924;7.114;2024-03-23T11:25:23;4.75;;;1.17;;
22531;SDS011;11432;46.924;7.114;2024-03-23T11:30:36;2.65;;;0.60;;
22531;SDS011;11432;46.924;7.114;2024-03-23T11:33:03;3.63;;;0.77;;
22531;SDS011;11432;46.924;7.114;2024-03-23T11:38:05;2.30;;;0.75;;
22531;SDS011;11432;46.924;7.114;2024-03-23T11:40:38;5.35;;;0.80;;
22531;SDS011;11432;46.924;7.114;2024-03-23T11:43:07;3.78;;;0.93;;
22531;SDS011;11432;46.924;7.114;2024-03-23T11:45:34;3.10;;;0.40;;
22531;SDS011;11432;46.924;7.114;2024-03-23T11:48:01;2.28;;;0.93;;
22531;SDS011;11432;46.924;7.114;2024-03-23T11:50:28;2.45;;;0.30;;
22531;SDS011;11432;46.924;7.114;2024-03-23T11:53:05;4.75;;;1.00;;
22531;SDS011;11432;46.924;7.114;2024-03-23T11:55:38;4.93;;;1.35;;
22531;SDS011;11432;46.924;7.114;2024-03-23T11:58:07;5.65;;;1.15;;
22531;SDS011;11432;46.924;7.114;2024-03-23T12:00:33;4.65;;;0.90;;
22531;SDS011;11432;46.924;7.114;2024-03-23T12:03:02;2.20;;;0.52;;
22531;SDS011;11432;46.924;7.114;2024-03-23T12:05:28;2.42;;;0.90;;
22531;SDS011;11432;46.924;7.114;2024-03-23T12:07:54;3.97;;;0.70;;
22531;SDS011;11432;46.924;7.114;2024-03-23T12:10:20;4.18;;;0.70;;
22531;SDS011;11432;46.924;7.114;2024-03-23T12:12:57;6.03;;;0.73;;
22531;SDS011;11432;46.924;7.114;2024-03-23T12:15:26;4.35;;;1.00;;
22531;SDS011;11432;46.924;7.114;2024-03-23T12:18:05;3.72;;;0.70;;
22531;SDS011;11432;46.924;7.114;2024-03-23T12:20:32;3.80;;;0.93;;
22531;SDS011;11432;46.924;7.114;2024-03-23T12:23:04;3.42;;;0.90;;
22531;SDS011;11432;46.924;7.114;2024-03-23T12:25:34;2.47;;;0.63;;
22531;SDS011;11432;46.924;7.114;2024-03-23T12:28:01;5.05;;;0.70;;
22531;SDS011;11432;46.924;7.114;2024-03-23T12:30:26;5.93;;;0.90;;
22531;SDS011;11432;46.924;7.114;2024-03-23T12:32:52;3.63;;;1.27;;
22531;SDS011;11432;46.924;7.114;2024-03-23T12:35:18;6.20;;;0.82;;
22531;SDS011;11432;46.924;7.114;2024-03-23T12:37:44;2.78;;;0.70;;
22531;SDS011;11432;46.924;7.114;2024-03-23T12:40:09;4.82;;;0.95;;
22531;SDS011;11432;46.924;7.114;2024-03-23T12:42:36;4.28;;;1.13;;
22531;SDS011;11432;46.924;7.114;2024-03-23T12:45:01;4.65;;;1.30;;
22531;SDS011;11432;46.924;7.114;2024-03-23T12:47:28;2.78;;;1.05;;
22531;SDS011;11432;46.924;7.114;2024-03-23T12:49:55;1.92;;;0.90;;
22531;SDS011;11432;46.924;7.114;2024-03-23T12:52:20;4.90;;;1.67;;
22531;SDS011;11432;46.924;7.114;2024-03-23T12:54:48;3.20;;;1.42;;
22531;SDS011;11432;46.924;7.114;2024-03-23T12:57:14;6.20;;;1.73;;
22531;SDS011;11432;46.924;7.114;2024-03-23T12:59:40;4.72;;;1.17;;
22531;SDS011;11432;46.924;7.114;2024-03-23T13:02:05;6.50;;;2.05;;
22531;SDS011;11432;46.924;7.114;2024-03-23T13:04:32;2.75;;;0.90;;
22531;SDS011;11432;46.924;7.114;2024-03-23T13:06:57;4.97;;;1.33;;
22531;SDS011;11432;46.924;7.114;2024-03-23T13:09:23;5.00;;;1.13;;
22531;SDS011;11432;46.924;7.114;2024-03-23T13:11:49;4.88;;;0.77;;
22531;SDS011;11432;46.924;7.114;2024-03-23T13:14:14;2.55;;;0.80;;
22531;SDS011;11432;46.924;7.114;2024-03-23T13:16:41;6.22;;;0.90;;
22531;SDS011;11432;46.924;7.114;2024-03-23T13:19:07;2.50;;;0.70;;
22531;SDS011;11432;46.924;7.114;2024-03-23T13:21:33;3.58;;;0.98;;
22531;SDS011;11432;46.924;7.114;2024-03-23T13:23:58;2.85;;;1.00;;
22531;SDS011;11432;46.924;7.114;2024-03-23T13:26:24;3.35;;;0.90;;
22531;SDS011;11432;46.924;7.114;2024-03-23T13:28:49;1.67;;;0.47;;
22531;SDS011;11432;46.924;7.114;2024-03-23T13:31:15;1.63;;;0.40;;
22531;SDS011;11432;46.924;7.114;2024-03-23T13:33:40;3.25;;;0.90;;
22531;SDS011;11432;46.924;7.114;2024-03-23T13:36:08;4.38;;;0.77;;
22531;SDS011;11432;46.924;7.114;2024-03-23T13:38:34;2.15;;;0.63;;
22531;SDS011;11432;46.924;7.114;2024-03-23T20:33:55;0.93;;;0.35;;
22531;SDS011;11432;46.924;7.114;2024-03-23T20:36:22;0.93;;;0.38;;
22531;SDS011;11432;46.924;7.114;2024-03-23T20:38:48;1.50;;;0.45;;
22531;SDS011;11432;46.924;7.114;2024-03-23T20:41:14;2.78;;;0.70;;
22531;SDS011;11432;46.924;7.114;2024-03-23T20:43:39;5.07;;;0.65;;
22531;SDS011;11432;46.924;7.114;2024-03-23T20:46:10;9.65;;;0.70;;
22531;SDS011;11432;46.924;7.114;2024-03-23T20:48:37;2.90;;;0.60;;
22531;SDS011;11432;46.924;7.114;2024-03-23T20:51:05;3.20;;;0.38;;
22531;SDS011;11432;46.924;7.114;2024-03-23T20:53:33;2.78;;;0.68;;
22531;SDS011;11432;46.924;7.114;2024-03-23T20:56:00;1.17;;;0.50;;
22531;SDS011;11432;46.924;7.114;2024-03-23T20:58:27;1.63;;;0.65;;
22531;SDS011;11432;46.924;7.114;2024-03-23T21:00:57;3.20;;;0.60;;
22531;SDS011;11432;46.924;7.114;2024-03-23T21:03:23;3.58;;;0.60;;
22531;SDS011;11432;46.924;7.114;2024-03-23T21:05:51;2.75;;;0.40;;
22531;SDS011;11432;46.924;7.114;2024-03-23T21:08:17;1.95;;;0.50;;
22531;SDS011;11432;46.924;7.114;2024-03-23T21:13:19;2.53;;;0.52;;
22531;SDS011;11432;46.924;7.114;2024-03-23T21:15:46;3.33;;;0.65;;
22531;SDS011;11432;46.924;7.114;2024-03-23T21:18:12;3.53;;;0.80;;
22531;SDS011;11432;46.924;7.114;2024-03-23T21:20:38;3.78;;;0.90;;
22531;SDS011;11432;46.924;7.114;2024-03-23T21:23:04;2.38;;;0.68;;
22531;SDS011;11432;46.924;7.114;2024-03-23T21:25:29;4.75;;;1.13;;
22531;SDS011;11432;46.924;7.114;2024-03-23T21:27:55;3.42;;;1.00;;
22531;SDS011;11432;46.924;7.114;2024-03-23T21:30:21;3.45;;;0.73;;
22531;SDS011;11432;46.924;7.114;2024-03-23T21:32:46;4.40;;;0.70;;
22531;SDS011;11432;46.924;7.114;2024-03-23T21:35:12;1.25;;;0.40;;
22531;SDS011;11432;46.924;7.114;2024-03-23T21:37:38;2.05;;;0.65;;
22531;SDS011;11432;46.924;7.114;2024-03-23T21:40:03;2.63;;;0.60;;
22531;SDS011;11432;46.924;7.114;2024-03-23T21:42:30;1.27;;;0.40;;
22531;SDS011;11432;46.924;7.114;2024-03-23T21:44:55;1.85;;;0.65;;
22531;SDS011;11432;46.924;7.114;2024-03-23T21:47:21;0.88;;;0.47;;
22531;SDS011;11432;46.924;7.114;2024-03-23T21:49:46;0.70;;;0.40;;
22531;SDS011;11432;46.924;7.114;2024-03-23T21:52:12;0.95;;;0.45;;
22531;SDS011;11432;46.924;7.114;2024-03-23T21:54:39;1.95;;;0.40;;
22531;SDS011;11432;46.924;7.114;2024-03-23T21:57:05;3.20;;;0.55;;
22531;SDS011;11432;46.924;7.114;2024-03-23T21:59:30;3.97;;;0.70;;
22531;SDS011;11432;46.924;7.114;2024-03-23T22:01:57;5.10;;;0.70;;
22531;SDS011;11432;46.924;7.114;2024-03-23T22:04:22;1.45;;;0.65;;
22531;SDS011;11432;46.924;7.114;2024-03-23T22:06:48;3.58;;;0.70;;
22531;SDS011;11432;46.924;7.114;2024-03-23T22:09:14;1.77;;;0.60;;
22531;SDS011;11432;46.924;7.114;2024-03-23T22:11:39;4.85;;;1.00;;
22531;SDS011;11432;46.924;7.114;2024-03-23T22:14:05;2.80;;;1.00;;
22531;SDS011;11432;46.924;7.114;2024-03-23T22:16:30;3.55;;;0.63;;
22531;SDS011;11432;46.924;7.114;2024-03-23T22:18:56;5.07;;;0.80;;
22531;SDS011;11432;46.924;7.114;2024-03-23T22:21:22;3.58;;;0.70;;
22531;SDS011;11432;46.924;7.114;2024-03-23T22:23:47;1.08;;;0.30;;
22531;SDS011;11432;46.924;7.114;2024-03-23T22:26:13;1.58;;;0.40;;
22531;SDS011;11432;46.924;7.114;2024-03-23T22:28:38;2.40;;;0.55;;
22531;SDS011;11432;46.924;7.114;2024-03-23T22:31:04;1.67;;;0.50;;
22531;SDS011;11432;46.924;7.114;2024-03-23T22:33:30;5.28;;;0.70;;
22531;SDS011;11432;46.924;7.114;2024-03-23T22:35:56;2.10;;;0.40;;
22531;SDS011;11432;46.924;7.114;2024-03-23T22:38:26;3.65;;;0.57;;
22531;SDS011;11432;46.924;7.114;2024-03-23T22:43:25;3.08;;;0.93;;
22531;SDS011;11432;46.924;7.114;2024-03-23T22:46:02;1.85;;;0.28;;
22531;SDS011;11432;46.924;7.114;2024-03-23T22:48:30;1.75;;;0.15;;
22531;SDS011;11432;46.924;7.114;2024-03-23T22:50:59;2.40;;;0.55;;
22531;SDS011;11432;46.924;7.114;2024-03-23T22:53:26;1.50;;;0.60;;